Página principal
METAR-TAF:

METAR-TAF

Aeroportos :

Shungnak, Alasca, Estados Unidos

latitude: 66-53-17N, longitude: 157-09-45W, altura: 60 m

Observação actual do tempo

O boletim foi feito há 10 minutos, às 17:56 UTC
Vento 5 kt de oeste
Temperatura 16°C
Humidade 63%
Pressão 1017 hPa
Visibilidade: 16.1 km
Poucas nuvensa uma altura de 12000 ft

METAR: PAGH 201756Z AUTO 28005KT 10SM FEW120 16/09 A3003 RMK AO2 SLP172 T01560089 10156 20117 58000

Hora: 10:06 (18:06 UTC)


TAF: em falta

Observações e previsões do tempo de mais de 4000 aeroportos (mensagens METAR e TAF).

As estações disponíveis são os pontos amarelos e vermelhos sobre o mapa.

Mova o rato sobre o mapa para ver o nome da estação.

Depois clique no ponto para visualizar as observações e previsões meteorológicas.

Para alterar o mapa : clique nos botões verdes com uma cruz preta para aumentar o zoom; no botão verde com uma pitada de zoom; ou nas setas verdes para mapas adjacentes.


METAR-TAF: